createdAt,value
2023-03-26T00:01:52.831Z,81.19
2023-03-26T00:04:21.872Z,81.15
2023-03-26T00:06:50.487Z,81.36
2023-03-26T00:09:18.889Z,81.37
2023-03-26T00:11:46.929Z,81.30
2023-03-26T00:14:17.605Z,81.44
2023-03-26T00:16:47.717Z,81.45
2023-03-26T00:19:16.747Z,81.09
2023-03-26T00:21:44.602Z,81.18
2023-03-26T00:24:15.356Z,81.44
2023-03-26T00:26:44.681Z,81.30
2023-03-26T00:29:13.854Z,81.44
2023-03-26T00:31:46.553Z,81.55
2023-03-26T00:34:18.483Z,81.64
2023-03-26T00:36:47.447Z,81.84
2023-03-26T00:39:15.367Z,81.98
2023-03-26T00:41:43.764Z,81.95
2023-03-26T00:44:11.703Z,82.04
2023-03-26T00:46:39.574Z,82.13
2023-03-26T00:49:10.811Z,82.39
2023-03-26T00:51:39.393Z,82.22
2023-03-26T00:54:08.474Z,82.15
2023-03-26T00:56:36.221Z,82.15
2023-03-26T00:59:04.370Z,82.20
2023-03-26T01:01:32.523Z,82.17
2023-03-26T01:04:30.576Z,82.26
2023-03-26T01:07:06.847Z,82.36
2023-03-26T01:09:42.788Z,82.56
2023-03-26T01:12:18.354Z,82.44
2023-03-26T01:14:50.208Z,82.46
2023-03-26T01:17:19.410Z,82.79
2023-03-26T01:20:15.188Z,83.13
2023-03-26T01:22:49.475Z,83.43
2023-03-26T01:25:17.310Z,83.35
2023-03-26T01:27:50.254Z,83.43
2023-03-26T01:30:43.367Z,83.67
2023-03-26T01:33:26.434Z,83.90
2023-03-26T01:36:16.842Z,84.00
2023-03-26T01:38:46.914Z,83.96
2023-03-26T01:41:21.660Z,84.05
2023-03-26T01:44:02.804Z,83.94
2023-03-26T01:46:36.339Z,84.01
2023-03-26T01:49:05.724Z,84.15
2023-03-26T01:51:35.643Z,84.21
2023-03-26T01:54:05.832Z,84.22
2023-03-26T01:56:50.311Z,84.16
2023-03-26T01:59:53.110Z,84.05
2023-03-26T02:02:37.275Z,83.98
2023-03-26T02:05:28.576Z,83.77
2023-03-26T02:08:09.594Z,83.74
2023-03-26T02:10:49.425Z,83.65
2023-03-26T02:13:17.286Z,83.59
2023-03-26T02:15:56.818Z,83.51
2023-03-26T02:18:25.209Z,83.71
2023-03-26T02:20:53.190Z,83.87
2023-03-26T02:23:21.522Z,83.98
2023-03-26T02:25:49.329Z,83.73
2023-03-26T02:28:17.160Z,83.62
2023-03-26T02:30:45.927Z,83.63
2023-03-26T02:33:15.477Z,83.60
2023-03-26T02:35:45.938Z,83.88
2023-03-26T02:38:14.722Z,83.98
2023-03-26T02:40:42.843Z,84.06
2023-03-26T02:43:10.954Z,84.05
2023-03-26T02:45:39.352Z,84.13
2023-03-26T02:48:26.385Z,84.06
2023-03-26T02:51:00.173Z,84.05
2023-03-26T02:53:51.568Z,84.05
2023-03-26T02:56:37.701Z,83.96
2023-03-26T02:59:28.685Z,83.85
2023-03-26T03:02:14.732Z,83.90
2023-03-26T03:04:44.194Z,84.20
2023-03-26T03:07:15.050Z,84.18
2023-03-26T03:09:43.141Z,84.07
2023-03-26T03:12:29.601Z,84.39
2023-03-26T03:14:57.462Z,84.50
2023-03-26T03:17:25.307Z,84.64
2023-03-26T03:19:53.078Z,84.46
2023-03-26T03:22:21.050Z,84.39
2023-03-26T03:24:51.968Z,84.44
2023-03-26T03:27:21.618Z,84.46
2023-03-26T03:29:58.943Z,84.69
2023-03-26T03:32:47.348Z,84.89
2023-03-26T03:35:18.210Z,85.11
2023-03-26T03:37:48.782Z,85.05
2023-03-26T03:40:16.840Z,85.09
2023-03-26T03:42:46.638Z,85.09
2023-03-26T03:45:15.501Z,85.14
2023-03-26T03:47:53.160Z,85.07
2023-03-26T03:50:26.975Z,85.19
2023-03-26T03:53:08.779Z,85.04
2023-03-26T03:55:38.330Z,85.03
2023-03-26T03:58:09.237Z,84.95
2023-03-26T04:00:38.446Z,84.97
2023-03-26T04:03:33.538Z,84.83
2023-03-26T04:06:02.103Z,84.78
2023-03-26T04:08:30.237Z,84.83
2023-03-26T04:10:58.280Z,84.67
2023-03-26T04:13:44.851Z,84.77
2023-03-26T04:16:27.180Z,84.67
2023-03-26T04:18:55.114Z,84.61
2023-03-26T04:21:24.095Z,84.72
2023-03-26T04:23:51.774Z,84.73
2023-03-26T04:26:50.026Z,84.50
2023-03-26T04:29:24.495Z,84.62
2023-03-26T04:32:06.457Z,84.60
2023-03-26T04:34:34.421Z,84.45
2023-03-26T04:37:21.965Z,84.40
2023-03-26T04:39:55.537Z,84.31
2023-03-26T04:42:49.612Z,84.10
2023-03-26T04:45:30.441Z,84.11
2023-03-26T04:47:58.330Z,84.23
2023-03-26T04:50:26.982Z,84.49
2023-03-26T04:52:57.399Z,84.76
2023-03-26T04:56:12.533Z,84.81
2023-03-26T04:59:08.049Z,84.93
2023-03-26T05:01:40.269Z,84.77
2023-03-26T05:04:08.483Z,84.80
2023-03-26T05:06:38.041Z,84.97
2023-03-26T05:09:10.811Z,84.62
2023-03-26T05:11:58.511Z,84.43
2023-03-26T05:14:26.413Z,84.36
2023-03-26T05:16:55.131Z,84.53
2023-03-26T05:19:23.409Z,84.71
2023-03-26T05:21:51.362Z,84.74
2023-03-26T05:24:19.903Z,84.58
2023-03-26T05:26:47.841Z,84.68
2023-03-26T05:29:17.479Z,84.62
2023-03-26T05:31:48.938Z,84.69
2023-03-26T05:34:16.883Z,84.64
2023-03-26T05:36:44.661Z,84.23
2023-03-26T05:39:35.686Z,83.26
2023-03-26T05:42:23.516Z,83.43
2023-03-26T05:45:17.597Z,83.96
2023-03-26T05:47:45.397Z,84.35
2023-03-26T05:50:13.254Z,84.66
2023-03-26T05:52:42.536Z,84.81
2023-03-26T05:55:25.730Z,85.04
2023-03-26T05:58:13.898Z,85.10
2023-03-26T06:01:06.274Z,85.39
2023-03-26T06:03:51.419Z,85.42
2023-03-26T06:06:21.123Z,85.38
2023-03-26T06:09:00.920Z,85.42
2023-03-26T06:11:32.008Z,85.38
2023-03-26T06:14:01.071Z,85.31
2023-03-26T06:16:28.895Z,85.36
2023-03-26T06:19:11.809Z,85.28
2023-03-26T06:21:57.964Z,85.35
2023-03-26T06:24:31.638Z,85.34
2023-03-26T06:27:22.489Z,85.52
2023-03-26T06:29:50.265Z,85.29
2023-03-26T06:32:34.034Z,85.32
2023-03-26T06:35:09.440Z,85.55
2023-03-26T06:37:37.719Z,85.81
2023-03-26T06:40:06.278Z,85.78
2023-03-26T06:43:07.957Z,85.92
2023-03-26T06:46:09.319Z,86.25
2023-03-26T06:48:42.324Z,86.37
2023-03-26T06:51:19.343Z,86.59
2023-03-26T06:54:05.885Z,86.63
2023-03-26T06:57:02.568Z,86.71
2023-03-26T07:00:09.327Z,86.94
2023-03-26T07:02:55.612Z,87.05
2023-03-26T07:05:41.798Z,87.16
2023-03-26T07:08:28.041Z,87.21
2023-03-26T07:11:14.226Z,87.28
2023-03-26T07:14:00.969Z,87.20
2023-03-26T07:17:00.586Z,87.11
2023-03-26T07:19:53.703Z,87.24
2023-03-26T07:22:26.067Z,87.23
2023-03-26T07:25:14.116Z,87.17
2023-03-26T07:28:01.164Z,87.10
2023-03-26T07:30:55.398Z,86.87
2023-03-26T07:33:51.118Z,86.94
2023-03-26T07:37:08.780Z,86.97
2023-03-26T07:40:34.920Z,86.81
2023-03-26T07:43:45.976Z,86.97
2023-03-26T07:46:37.146Z,86.91
2023-03-26T07:49:24.420Z,86.70
2023-03-26T07:52:15.362Z,86.91
2023-03-26T07:54:56.220Z,86.92
2023-03-26T07:57:54.598Z,86.60
2023-03-26T08:01:10.158Z,86.35
2023-03-26T08:03:59.244Z,86.60
2023-03-26T08:07:26.132Z,86.55
2023-03-26T08:10:59.151Z,86.66
2023-03-26T08:14:03.311Z,86.64
2023-03-26T08:16:37.186Z,86.16
2023-03-26T08:19:47.101Z,86.13
2023-03-26T08:22:57.223Z,86.15
2023-03-26T08:25:42.377Z,86.05
2023-03-26T08:28:48.785Z,86.22
2023-03-26T08:31:19.426Z,85.99
2023-03-26T08:33:47.386Z,86.07
2023-03-26T08:36:15.642Z,86.15
2023-03-26T08:38:45.147Z,86.16
2023-03-26T08:41:25.599Z,86.01
2023-03-26T08:44:31.218Z,85.73
2023-03-26T08:47:05.333Z,85.79
2023-03-26T08:49:51.491Z,85.90
2023-03-26T08:52:40.516Z,85.55
2023-03-26T08:55:29.052Z,85.40
2023-03-26T08:58:06.109Z,85.56
2023-03-26T09:00:40.371Z,85.60
2023-03-26T09:03:25.069Z,85.11
2023-03-26T09:06:41.538Z,84.75
2023-03-26T09:09:47.066Z,84.17
2023-03-26T09:12:29.838Z,84.85
2023-03-26T09:15:32.887Z,85.01
2023-03-26T09:18:00.900Z,84.72
2023-03-26T09:20:37.792Z,84.73
2023-03-26T09:23:45.344Z,84.28
2023-03-26T09:26:42.263Z,84.74
2023-03-26T09:29:34.004Z,85.03
2023-03-26T09:32:05.012Z,84.58
2023-03-26T09:34:54.485Z,84.76
2023-03-26T09:37:56.740Z,84.61
2023-03-26T09:40:58.318Z,84.45
2023-03-26T09:43:36.715Z,84.99
2023-03-26T09:46:21.014Z,84.65
2023-03-26T09:48:54.448Z,84.50
2023-03-26T09:51:37.618Z,84.80
2023-03-26T09:54:10.803Z,84.60
2023-03-26T09:56:52.366Z,83.96
2023-03-26T09:59:32.287Z,84.20
2023-03-26T10:02:45.920Z,83.72
2023-03-26T10:05:49.103Z,82.68
2023-03-26T10:08:32.190Z,82.88
2023-03-26T10:11:28.215Z,82.53
2023-03-26T10:14:13.817Z,82.66
2023-03-26T10:16:50.705Z,83.80
2023-03-26T10:19:34.093Z,84.14
2023-03-26T10:22:32.392Z,84.40
2023-03-26T10:25:13.204Z,84.13
2023-03-26T10:28:09.025Z,84.24
2023-03-26T10:31:25.724Z,84.67
2023-03-26T10:34:09.020Z,84.68
2023-03-26T10:37:54.314Z,84.71
2023-03-26T10:40:32.375Z,84.39
2023-03-26T10:43:24.231Z,84.85
2023-03-26T10:46:19.345Z,85.38
2023-03-26T10:49:18.387Z,85.47
2023-03-26T10:52:08.105Z,85.06
2023-03-26T10:54:53.681Z,84.49
2023-03-26T10:57:43.195Z,84.60
2023-03-26T11:00:31.213Z,84.71
2023-03-26T11:03:11.255Z,84.63
2023-03-26T11:05:47.952Z,83.97
2023-03-26T11:08:32.284Z,84.01
2023-03-26T11:11:18.743Z,83.67
2023-03-26T11:13:52.926Z,83.54
2023-03-26T11:16:54.731Z,84.19
2023-03-26T11:19:35.932Z,84.44
2023-03-26T11:22:13.140Z,85.31
2023-03-26T11:24:47.013Z,86.12
2023-03-26T11:27:26.325Z,86.22
2023-03-26T11:30:23.565Z,86.51
2023-03-26T11:33:02.292Z,86.72
2023-03-26T11:35:39.481Z,86.72
2023-03-26T11:38:20.306Z,86.92
2023-03-26T11:40:54.148Z,86.82
2023-03-26T11:43:36.914Z,87.22
2023-03-26T11:46:09.643Z,87.02
2023-03-26T11:48:44.808Z,86.92
2023-03-26T11:51:36.765Z,87.01
2023-03-26T11:54:06.541Z,87.09
2023-03-26T11:57:05.019Z,87.13
2023-03-26T11:59:55.553Z,86.77
2023-03-26T12:02:38.378Z,87.02
2023-03-26T12:05:19.712Z,86.59
2023-03-26T12:07:56.096Z,86.84
2023-03-26T12:10:31.508Z,87.15
2023-03-26T12:13:02.616Z,87.04
2023-03-26T12:15:32.131Z,86.81
2023-03-26T12:18:20.757Z,86.44
2023-03-26T12:20:49.487Z,86.24
2023-03-26T12:23:43.643Z,86.85
2023-03-26T12:26:16.542Z,86.43
2023-03-26T12:28:47.266Z,86.42
2023-03-26T12:31:18.387Z,85.96
2023-03-26T12:34:06.091Z,85.08
2023-03-26T12:36:35.899Z,85.12
2023-03-26T12:40:09.913Z,84.88
2023-03-26T12:44:47.168Z,83.99
2023-03-26T12:45:24.649Z,84.38
2023-03-26T12:47:57.449Z,84.19
2023-03-26T12:50:42.763Z,83.36
2023-03-26T12:53:31.938Z,83.32
2023-03-26T12:56:27.240Z,82.80
2023-03-26T12:58:58.143Z,82.42
2023-03-26T13:01:47.194Z,82.28
2023-03-26T13:04:27.389Z,82.43
2023-03-26T13:07:02.764Z,82.30
2023-03-26T13:10:21.187Z,82.40
2023-03-26T13:12:58.218Z,82.25
2023-03-26T13:15:34.637Z,82.16
2023-03-26T13:18:33.539Z,82.28
2023-03-26T13:21:31.400Z,82.54
2023-03-26T13:24:43.352Z,82.64
2023-03-26T13:27:30.756Z,81.84
2023-03-26T13:30:25.459Z,81.68
2023-03-26T13:33:06.893Z,81.65
2023-03-26T13:35:48.393Z,80.23
2023-03-26T13:38:37.879Z,79.49
2023-03-26T13:41:30.428Z,79.57
2023-03-26T13:44:31.187Z,78.96
2023-03-26T13:47:13.159Z,77.96
2023-03-26T13:49:46.756Z,77.93
2023-03-26T13:52:25.179Z,77.60
2023-03-26T13:55:03.623Z,77.56
2023-03-26T13:57:40.811Z,76.14
2023-03-26T14:00:13.774Z,76.78
2023-03-26T14:02:49.481Z,75.80
2023-03-26T14:05:29.744Z,74.63
2023-03-26T14:08:17.342Z,75.68
2023-03-26T14:10:54.197Z,76.33
2023-03-26T14:13:31.964Z,76.80
2023-03-26T14:16:10.995Z,76.84
2023-03-26T14:18:41.362Z,77.41
2023-03-26T14:21:28.075Z,76.88
2023-03-26T14:24:11.136Z,76.90
2023-03-26T14:26:53.836Z,77.03
2023-03-26T14:29:56.846Z,76.87
2023-03-26T14:32:43.959Z,75.53
2023-03-26T14:35:35.149Z,75.05
2023-03-26T14:38:41.928Z,75.30
2023-03-26T14:41:24.864Z,75.67
2023-03-26T14:44:28.680Z,75.40
2023-03-26T14:47:16.926Z,74.37
2023-03-26T14:50:04.004Z,72.72
2023-03-26T14:52:50.129Z,73.03
2023-03-26T14:55:23.785Z,72.92
2023-03-26T14:58:01.971Z,72.77
2023-03-26T15:01:04.210Z,72.23
2023-03-26T15:04:03.204Z,71.75
2023-03-26T15:06:49.893Z,70.42
2023-03-26T15:09:32.511Z,70.23
2023-03-26T15:12:18.514Z,70.40
2023-03-26T15:15:20.878Z,69.96
2023-03-26T15:18:07.406Z,68.84
2023-03-26T15:20:54.581Z,69.21
2023-03-26T15:23:37.096Z,69.08
2023-03-26T15:26:42.544Z,68.76
2023-03-26T15:29:31.921Z,68.30
2023-03-26T15:32:26.064Z,66.72
2023-03-26T15:35:13.288Z,67.04
2023-03-26T15:37:57.084Z,66.45
2023-03-26T15:40:36.681Z,66.52
2023-03-26T15:43:12.344Z,66.72
2023-03-26T15:46:24.488Z,66.85
2023-03-26T15:48:52.471Z,66.60
2023-03-26T15:51:31.644Z,67.66
2023-03-26T15:54:48.917Z,67.32
2023-03-26T15:57:34.637Z,65.79
2023-03-26T16:00:15.373Z,66.32
2023-03-26T16:02:53.702Z,66.02
2023-03-26T16:05:37.295Z,65.48
2023-03-26T16:08:26.739Z,65.69
2023-03-26T16:11:00.374Z,65.68
2023-03-26T16:13:36.727Z,65.20
2023-03-26T16:16:04.519Z,65.95
2023-03-26T16:18:41.151Z,65.82
2023-03-26T16:21:37.108Z,66.24
2023-03-26T16:24:08.185Z,65.60
2023-03-26T16:26:40.116Z,65.56
2023-03-26T16:29:18.125Z,66.15
2023-03-26T16:32:00.738Z,66.23
2023-03-26T16:34:47.751Z,66.37
2023-03-26T16:37:37.169Z,66.80
2023-03-26T16:40:23.651Z,65.27
2023-03-26T16:43:29.139Z,67.26
2023-03-26T16:46:05.722Z,66.18
2023-03-26T16:48:48.512Z,66.23
2023-03-26T16:51:25.714Z,66.10
2023-03-26T16:54:04.076Z,66.73
2023-03-26T16:56:34.643Z,66.83
2023-03-26T16:59:25.918Z,66.16
2023-03-26T17:02:05.027Z,65.29
2023-03-26T17:04:34.488Z,64.14
2023-03-26T17:07:21.819Z,63.56
2023-03-26T17:10:14.901Z,63.52
2023-03-26T17:12:55.155Z,63.70
2023-03-26T17:15:47.267Z,63.44
2023-03-26T17:18:30.418Z,63.69
2023-03-26T17:21:09.725Z,64.19
2023-03-26T17:24:00.441Z,64.00
2023-03-26T17:26:53.763Z,65.07
2023-03-26T17:29:27.266Z,64.93
2023-03-26T17:32:09.254Z,65.17
2023-03-26T17:34:49.153Z,65.03
2023-03-26T17:37:17.017Z,65.56
2023-03-26T17:39:46.961Z,65.13
2023-03-26T17:42:32.895Z,65.59
2023-03-26T17:45:17.581Z,65.66
2023-03-26T17:48:02.414Z,65.89
2023-03-26T17:50:47.411Z,65.63
2023-03-26T17:53:27.205Z,65.75
2023-03-26T17:56:01.164Z,66.22
2023-03-26T17:58:39.106Z,66.79
2023-03-26T18:01:09.954Z,67.41
2023-03-26T18:04:03.081Z,67.42
2023-03-26T18:06:46.291Z,67.99
2023-03-26T18:09:36.198Z,67.51
2023-03-26T18:12:38.256Z,67.23
2023-03-26T18:15:24.027Z,67.54
2023-03-26T18:18:07.571Z,67.48
2023-03-26T18:20:37.589Z,67.61
2023-03-26T18:23:12.443Z,67.98
2023-03-26T18:25:41.124Z,68.08
2023-03-26T18:28:14.201Z,68.89
2023-03-26T18:30:47.732Z,68.54
2023-03-26T18:33:16.036Z,69.05
2023-03-26T18:35:54.147Z,69.26
2023-03-26T18:38:35.505Z,69.02
2023-03-26T18:41:08.378Z,69.27
2023-03-26T18:43:44.386Z,69.07
2023-03-26T18:46:14.714Z,68.71
2023-03-26T18:48:44.022Z,68.88
2023-03-26T18:51:12.725Z,69.18
2023-03-26T18:53:52.013Z,68.52
2023-03-26T18:56:31.798Z,68.74
2023-03-26T18:59:02.403Z,69.09
2023-03-26T19:01:33.375Z,69.17
2023-03-26T19:04:05.808Z,69.43
2023-03-26T19:06:38.530Z,69.54
2023-03-26T19:09:20.021Z,69.57
2023-03-26T19:11:58.738Z,69.47
2023-03-26T19:14:28.729Z,69.22
2023-03-26T19:17:00.943Z,68.94
2023-03-26T19:19:37.837Z,69.24
2023-03-26T19:22:07.272Z,69.76
2023-03-26T19:24:35.201Z,69.56
2023-03-26T19:27:04.105Z,69.14
2023-03-26T19:29:34.160Z,69.41
2023-03-26T19:32:05.234Z,69.37
2023-03-26T19:34:38.999Z,69.16
2023-03-26T19:37:23.868Z,69.49
2023-03-26T19:40:12.813Z,69.97
2023-03-26T19:42:44.764Z,69.96
2023-03-26T19:45:21.801Z,69.83
2023-03-26T19:48:00.416Z,69.46
2023-03-26T19:50:42.470Z,69.42
2023-03-26T19:53:24.582Z,69.56
2023-03-26T19:56:15.480Z,69.36
2023-03-26T19:58:44.091Z,69.57
2023-03-26T20:01:18.820Z,69.51
2023-03-26T20:03:49.767Z,69.97
2023-03-26T20:06:23.721Z,69.92
2023-03-26T20:08:56.652Z,70.35
2023-03-26T20:11:33.346Z,70.40
2023-03-26T20:14:01.698Z,70.47
2023-03-26T20:16:33.461Z,70.67
2023-03-26T20:19:02.478Z,70.37
2023-03-26T20:21:34.564Z,70.41
2023-03-26T20:24:02.940Z,70.83
2023-03-26T20:26:30.833Z,70.79
2023-03-26T20:28:58.892Z,71.07
2023-03-26T20:31:27.382Z,71.03
2023-03-26T20:33:56.518Z,71.20
2023-03-26T20:36:33.229Z,71.32
2023-03-26T20:39:08.003Z,71.28
2023-03-26T20:41:41.854Z,71.42
2023-03-26T20:44:15.919Z,71.70
2023-03-26T20:47:24.857Z,71.65
2023-03-26T20:49:53.112Z,71.68
2023-03-26T20:52:22.888Z,71.72
2023-03-26T20:54:50.648Z,71.91
2023-03-26T20:57:18.744Z,72.21
2023-03-26T20:59:46.721Z,72.39
2023-03-26T21:02:14.732Z,72.34
2023-03-26T21:04:42.632Z,72.55
2023-03-26T21:07:17.481Z,72.54
2023-03-26T21:09:48.789Z,72.69
2023-03-26T21:12:29.608Z,72.62
2023-03-26T21:14:58.445Z,72.97
2023-03-26T21:17:27.145Z,73.14
2023-03-26T21:19:55.368Z,73.14
2023-03-26T21:23:04.564Z,73.01
2023-03-26T21:25:43.285Z,73.07
2023-03-26T21:28:13.954Z,73.32
2023-03-26T21:30:42.645Z,73.39
2023-03-26T21:33:10.496Z,73.26
2023-03-26T21:35:38.754Z,73.46
2023-03-26T21:38:09.391Z,73.23
2023-03-26T21:40:40.594Z,73.28
2023-03-26T21:43:12.841Z,73.40
2023-03-26T21:45:41.520Z,73.41
2023-03-26T21:48:10.607Z,73.26
2023-03-26T21:50:38.946Z,73.12
2023-03-26T21:53:07.376Z,73.20
2023-03-26T21:56:00.980Z,72.98
2023-03-26T21:58:47.712Z,72.59
2023-03-26T22:01:33.264Z,72.10
2023-03-26T22:04:36.453Z,71.76
2023-03-26T22:07:17.686Z,71.98
2023-03-26T22:09:46.407Z,71.94
2023-03-26T22:12:14.284Z,70.76
2023-03-26T22:14:42.395Z,71.15
2023-03-26T22:17:10.499Z,70.96
2023-03-26T22:19:38.456Z,70.81
2023-03-26T22:22:06.261Z,70.80
2023-03-26T22:24:34.385Z,71.29
2023-03-26T22:27:02.676Z,70.57
2023-03-26T22:29:30.535Z,71.21
2023-03-26T22:31:58.333Z,70.76
2023-03-26T22:34:26.107Z,70.83
2023-03-26T22:36:53.903Z,70.97
2023-03-26T22:39:21.766Z,70.56
2023-03-26T22:41:49.568Z,70.87
2023-03-26T22:44:20.249Z,71.03
2023-03-26T22:46:51.773Z,70.94
2023-03-26T22:49:19.990Z,71.18
2023-03-26T22:51:48.036Z,71.28
2023-03-26T22:54:15.855Z,71.42
2023-03-26T22:56:45.773Z,71.13
2023-03-26T22:59:13.880Z,70.92
2023-03-26T23:01:41.745Z,71.15
2023-03-26T23:04:09.927Z,71.59
2023-03-26T23:06:37.887Z,71.72
2023-03-26T23:09:07.170Z,71.74
2023-03-26T23:11:35.137Z,71.88
2023-03-26T23:14:03.168Z,72.18
2023-03-26T23:16:31.810Z,72.05
2023-03-26T23:18:59.955Z,72.38
2023-03-26T23:21:27.780Z,72.28
2023-03-26T23:23:55.766Z,72.08
2023-03-26T23:26:24.488Z,72.23
2023-03-26T23:28:52.397Z,72.45
2023-03-26T23:31:20.206Z,72.54
2023-03-26T23:33:50.226Z,72.60
2023-03-26T23:36:20.363Z,73.00
2023-03-26T23:38:48.962Z,72.76
2023-03-26T23:41:21.537Z,72.56
2023-03-26T23:43:53.936Z,72.92
2023-03-26T23:46:34.694Z,72.39
2023-03-26T23:49:03.768Z,72.52
2023-03-26T23:51:33.246Z,72.39
2023-03-26T23:54:01.493Z,72.58
2023-03-26T23:56:30.063Z,72.79
2023-03-26T23:58:59.255Z,72.80
